Dayton, Virginia
Current Conditions -  °F | °C
As of 9:55 PM on Sunday 23 Nov 2014 (Local Time) from KVBW Reporting Station
Overcast Overcast  
Wind Chill: 47°   Ceiling: 700
Heat Index: 47°   Visibility: 3mi
Dew Point: 47°   Wind: 3mph
Humidity: 99%   Direction: 300°WNW
Pressure: 29.83"   Gusts: NA
Location:  38.41°N, 78.94°W
Report Text: KVBW 240255Z AUTO 30003KT 3SM BKN007 OVC012 09/09 A2983 RMK AO2 P0009 60014 T00860085
Loading
Personal Weather Stations






























Interactive Weather Map New forecast layout! Learn more

10-Day Weather Forecast

Advertisements
Track Severe Weather on mobile